N805AB KNUW-
Flight info
| Callsign | N805AB |
|---|---|
| Flight time | N/A |
| Altitude | VFR |
| Route | |
| Aircraft | F18H/M-VD/C |
Departure
| Time | 2026-04-22 02:08 |
|---|---|
| Airport | Whidbey Island Naval Air Station (Ault Field) (KNUW) |
Arrival
| Time | N/A |
|---|---|
| Airport | - |
| Time | Latitude | Longitude | Altitude | Speed | Heading |
|---|---|---|---|---|---|
| 2026-04-22 02:08 | 48.25617 | -122.70801 | 2406 ft | 537 kts | 171° |
| 2026-04-22 02:08 | 48.21835 | -122.69777 | 2812 ft | 551 kts | 171° |
| 2026-04-22 02:09 | 48.18185 | -122.68785 | 2764 ft | 518 kts | 171° |
| 2026-04-22 02:09 | 48.14714 | -122.67838 | 2717 ft | 498 kts | 171° |
| 2026-04-22 02:09 | 48.11347 | -122.66923 | 2518 ft | 487 kts | 171° |
| 2026-04-22 02:09 | 48.08040 | -122.66024 | 2194 ft | 481 kts | 171° |
| 2026-04-22 02:10 | 48.04754 | -122.65132 | 1814 ft | 479 kts | 171° |
| 2026-04-22 02:10 | 48.02127 | -122.63166 | 1459 ft | 414 kts | 119° |
| 2026-04-22 02:10 | 48.00740 | -122.59937 | 1411 ft | 342 kts | 150° |
| 2026-04-22 02:10 | 47.98768 | -122.58550 | 1974 ft | 289 kts | 159° |
| 2026-04-22 02:11 | 47.96990 | -122.57588 | 2290 ft | 258 kts | 162° |
| 2026-04-22 02:11 | 47.95316 | -122.56810 | 2344 ft | 250 kts | 165° |
| 2026-04-22 02:11 | 47.93622 | -122.56146 | 2164 ft | 252 kts | 167° |
| 2026-04-22 02:11 | 47.91923 | -122.55539 | 1895 ft | 251 kts | 167° |
| 2026-04-22 02:12 | 47.90221 | -122.54943 | 1609 ft | 252 kts | 167° |
| 2026-04-22 02:12 | 47.89495 | -122.52931 | 1193 ft | 319 kts | 69° |
| 2026-04-22 02:12 | 47.90594 | -122.49470 | 1514 ft | 423 kts | 53° |
| 2026-04-22 02:12 | 47.93230 | -122.46922 | 2145 ft | 490 kts | 26° |
| 2026-04-22 02:13 | 47.96478 | -122.44509 | 2482 ft | 549 kts | 25° |
| 2026-04-22 02:13 | 48.00189 | -122.42440 | 2541 ft | 589 kts | 15° |
| 2026-04-22 02:13 | 48.04209 | -122.40956 | 2640 ft | 579 kts | 12° |
| 2026-04-22 02:13 | 48.07980 | -122.39769 | 2555 ft | 533 kts | 10° |
| 2026-04-22 02:14 | 48.11536 | -122.38825 | 2253 ft | 508 kts | 8° |
| 2026-04-22 02:14 | 48.14990 | -122.38089 | 1769 ft | 496 kts | 6° |
| 2026-04-22 02:14 | 48.18401 | -122.37550 | 1157 ft | 490 kts | 4° |
| 2026-04-22 02:14 | 48.21671 | -122.37137 | 1250 ft | 453 kts | 4° |
| 2026-04-22 02:15 | 48.24639 | -122.36761 | 1841 ft | 405 kts | 3° |
| 2026-04-22 02:15 | 48.27341 | -122.36409 | 2425 ft | 404 kts | 3° |
| 2026-04-22 02:15 | 48.30408 | -122.36026 | 3249 ft | 476 kts | 4° |
| 2026-04-22 02:15 | 48.33515 | -122.36545 | 3804 ft | 409 kts | 328° |
| 2026-04-22 02:16 | 48.35129 | -122.39436 | 3546 ft | 339 kts | 282° |
| 2026-04-22 02:16 | 48.35428 | -122.42746 | 3017 ft | 304 kts | 277° |
| 2026-04-22 02:16 | 48.35662 | -122.45777 | 2376 ft | 282 kts | 276° |
| 2026-04-22 02:16 | 48.35772 | -122.47696 | 1905 ft | 272 kts | 272° |
| 2026-04-22 02:17 | 48.35719 | -122.51266 | 1391 ft | 240 kts | 265° |
| 2026-04-22 02:17 | 48.35621 | -122.53675 | 1145 ft | 230 kts | 266° |
| 2026-04-22 02:17 | 48.35535 | -122.56022 | 963 ft | 218 kts | 266° |
| 2026-04-22 02:17 | 48.35461 | -122.58169 | 799 ft | 189 kts | 266° |
| 2026-04-22 02:18 | 48.35403 | -122.59864 | 605 ft | 129 kts | 266° |
| 2026-04-22 02:18 | 48.35374 | -122.60711 | 491 ft | 125 kts | 265° |
| 2026-04-22 02:18 | 48.35319 | -122.62030 | 346 ft | 125 kts | 266° |
| 2026-04-22 02:18 | 48.35271 | -122.63306 | 177 ft | 120 kts | 266° |
| 2026-04-22 02:19 | 48.35227 | -122.64504 | 31 ft | 107 kts | 266° |
| 2026-04-22 02:19 | 48.35184 | -122.65667 | 32 ft | 140 kts | 266° |
| 2026-04-22 02:19 | 48.35096 | -122.67847 | 155 ft | 278 kts | 265° |
| 2026-04-22 02:19 | 48.33598 | -122.71950 | 774 ft | 416 kts | 217° |
| 2026-04-22 02:20 | 48.30579 | -122.72444 | 942 ft | 488 kts | 158° |
| 2026-04-22 02:20 | 48.28999 | -122.69928 | 928 ft | 526 kts | 115° |
| 2026-04-22 02:20 | 48.28039 | -122.64459 | 1018 ft | 568 kts | 97° |
| 2026-04-22 02:20 | 48.28867 | -122.58632 | 971 ft | 592 kts | 56° |
| 2026-04-22 02:21 | 48.32295 | -122.55390 | 1014 ft | 596 kts | 26° |
| 2026-04-22 02:21 | 48.36137 | -122.55323 | 822 ft | 565 kts | 307° |
| 2026-04-22 02:21 | 48.35601 | -122.59513 | 573 ft | 300 kts | 249° |
| 2026-04-22 02:21 | 48.35335 | -122.61832 | 368 ft | 173 kts | 265° |
| 2026-04-22 02:22 | 48.35283 | -122.63198 | 164 ft | 112 kts | 265° |
| 2026-04-22 02:22 | 48.35237 | -122.64369 | 34 ft | 105 kts | 266° |
| 2026-04-22 02:22 | 48.35195 | -122.65457 | 34 ft | 135 kts | 267° |
| 2026-04-22 02:22 | 48.35128 | -122.67242 | 831 ft | 223 kts | 266° |
| 2026-04-22 02:23 | 48.34392 | -122.69862 | 838 ft | 343 kts | 202° |
| 2026-04-22 02:23 | 48.31961 | -122.68845 | 800 ft | 422 kts | 111° |
| 2026-04-22 02:23 | 48.31978 | -122.64522 | 855 ft | 401 kts | 79° |
| 2026-04-22 02:23 | 48.32464 | -122.60790 | 886 ft | 332 kts | 79° |
| 2026-04-22 02:24 | 48.32869 | -122.57840 | 810 ft | 239 kts | 70° |
| 2026-04-22 02:24 | 48.34043 | -122.56694 | 773 ft | 185 kts | 359° |
| 2026-04-22 02:24 | 48.34958 | -122.57260 | 649 ft | 124 kts | 313° |
| 2026-04-22 02:24 | 48.35434 | -122.58403 | 545 ft | 143 kts | 266° |
| 2026-04-22 02:25 | 48.35389 | -122.59987 | 520 ft | 168 kts | 267° |
| 2026-04-22 02:25 | 48.35324 | -122.61967 | 342 ft | 193 kts | 266° |
| 2026-04-22 02:25 | 48.35267 | -122.63547 | 91 ft | 110 kts | 266° |
| 2026-04-22 02:25 | 48.35225 | -122.64626 | 30 ft | 90 kts | 267° |
| 2026-04-22 02:26 | 48.35198 | -122.65347 | 33 ft | 63 kts | 266° |
| 2026-04-22 02:26 | 48.35179 | -122.65584 | 32 ft | 13 kts | 221° |
| 2026-04-22 02:26 | 48.35155 | -122.65840 | 30 ft | 68 kts | 269° |
| 2026-04-22 02:26 | 48.35127 | -122.66388 | 27 ft | 29 kts | 246° |
| 2026-04-22 02:27 | 48.35095 | -122.66491 | 27 ft | 7 kts | 244° |
| 2026-04-22 02:27 | 48.35041 | -122.66667 | 27 ft | 27 kts | 245° |
| 2026-04-22 02:27 | 48.34938 | -122.66919 | 29 ft | 27 kts | 207° |
| 2026-04-22 02:27 | 48.34799 | -122.66970 | 27 ft | 17 kts | 189° |